createdAt,value
2022-11-17T00:01:52.603Z,17.67
2022-11-17T00:04:19.132Z,17.00
2022-11-17T00:06:45.868Z,18.67
2022-11-17T00:09:17.455Z,17.52
2022-11-17T00:12:03.225Z,18.02
2022-11-17T00:14:32.869Z,18.23
2022-11-17T00:17:05.347Z,17.45
2022-11-17T00:19:50.400Z,18.15
2022-11-17T00:22:16.913Z,18.05
2022-11-17T00:24:43.490Z,18.47
2022-11-17T00:27:10.112Z,17.97
2022-11-17T00:29:39.338Z,18.60
2022-11-17T00:32:34.592Z,18.15
2022-11-17T00:35:01.747Z,18.13
2022-11-17T00:37:33.154Z,18.33
2022-11-17T00:40:01.268Z,19.42
2022-11-17T00:42:28.024Z,17.73
2022-11-17T00:44:54.619Z,19.00
2022-11-17T00:47:21.198Z,18.50
2022-11-17T00:49:47.699Z,17.87
2022-11-17T00:52:14.197Z,18.95
2022-11-17T00:54:40.680Z,17.83
2022-11-17T00:57:07.205Z,17.00
2022-11-17T00:59:33.698Z,17.70
2022-11-17T01:02:00.338Z,18.23
2022-11-17T01:04:26.897Z,17.50
2022-11-17T01:06:53.652Z,18.37
2022-11-17T01:09:23.493Z,16.90
2022-11-17T01:11:51.696Z,17.10
2022-11-17T01:14:21.263Z,17.88
2022-11-17T01:16:48.138Z,17.13
2022-11-17T01:19:15.954Z,17.35
2022-11-17T01:21:43.183Z,16.30
2022-11-17T01:24:11.496Z,15.75
2022-11-17T01:26:39.447Z,16.40
2022-11-17T01:29:07.036Z,16.95
2022-11-17T01:31:39.080Z,17.40
2022-11-17T01:34:07.102Z,16.17
2022-11-17T01:36:57.993Z,15.57
2022-11-17T01:39:26.055Z,15.85
2022-11-17T01:41:53.575Z,15.68
2022-11-17T01:44:41.996Z,16.60
2022-11-17T01:47:15.823Z,14.13
2022-11-17T01:49:42.680Z,15.75
2022-11-17T01:52:11.769Z,15.15
2022-11-17T01:54:40.540Z,14.32
2022-11-17T01:57:13.862Z,12.80
2022-11-17T01:59:48.977Z,15.48
2022-11-17T02:02:15.569Z,15.43
2022-11-17T02:04:53.482Z,14.27
2022-11-17T02:07:24.777Z,14.80
2022-11-17T02:09:53.365Z,15.20
2022-11-17T02:12:21.930Z,13.95
2022-11-17T02:14:52.990Z,14.73
2022-11-17T02:17:21.663Z,14.15
2022-11-17T02:20:01.084Z,14.40
2022-11-17T02:22:58.171Z,13.13
2022-11-17T02:26:00.534Z,14.18
2022-11-17T02:28:29.906Z,13.60
2022-11-17T02:31:11.668Z,13.50
2022-11-17T02:34:02.691Z,14.57
2022-11-17T02:36:54.338Z,14.18
2022-11-17T02:39:41.646Z,13.15
2022-11-17T02:42:14.061Z,13.70
2022-11-17T02:44:50.880Z,12.52
2022-11-17T02:47:22.317Z,13.10
2022-11-17T02:49:57.637Z,13.20
2022-11-17T02:52:25.334Z,14.43
2022-11-17T02:54:51.896Z,13.95
2022-11-17T02:57:32.605Z,13.47
2022-11-17T03:00:12.383Z,12.95
2022-11-17T03:02:48.035Z,13.68
2022-11-17T03:05:26.830Z,13.77
2022-11-17T03:08:08.635Z,13.52
2022-11-17T03:10:48.801Z,13.10
2022-11-17T03:13:25.366Z,13.18
2022-11-17T03:16:12.722Z,12.75
2022-11-17T03:18:56.920Z,12.68
2022-11-17T03:21:28.895Z,13.50
2022-11-17T03:24:04.098Z,13.50
2022-11-17T03:26:38.071Z,12.70
2022-11-17T03:29:09.780Z,12.60
2022-11-17T03:31:37.779Z,13.88
2022-11-17T03:34:09.346Z,13.77
2022-11-17T03:36:41.719Z,12.43
2022-11-17T03:39:24.394Z,12.25
2022-11-17T03:41:57.378Z,13.63
2022-11-17T03:44:26.946Z,12.70
2022-11-17T03:46:56.151Z,12.70
2022-11-17T03:49:41.241Z,12.00
2022-11-17T03:52:07.886Z,12.68
2022-11-17T03:54:36.650Z,12.30
2022-11-17T03:57:12.721Z,13.50
2022-11-17T04:00:04.954Z,12.27
2022-11-17T04:02:31.571Z,12.27
2022-11-17T04:05:06.954Z,12.63
2022-11-17T04:07:34.652Z,12.57
2022-11-17T04:10:01.569Z,12.10
2022-11-17T04:12:47.016Z,11.30
2022-11-17T04:15:32.160Z,11.63
2022-11-17T04:17:59.107Z,11.55
2022-11-17T04:20:25.755Z,11.18
2022-11-17T04:23:07.483Z,12.43
2022-11-17T04:25:53.322Z,12.27
2022-11-17T04:28:38.377Z,11.55
2022-11-17T04:31:19.825Z,12.15
2022-11-17T04:33:48.846Z,11.35
2022-11-17T04:36:18.757Z,12.15
2022-11-17T04:38:48.001Z,11.48
2022-11-17T04:41:35.255Z,12.40
2022-11-17T04:44:02.943Z,11.52
2022-11-17T04:46:31.214Z,10.95
2022-11-17T04:48:58.803Z,12.32
2022-11-17T04:51:26.184Z,11.88
2022-11-17T04:56:20.725Z,12.38
2022-11-17T04:58:48.215Z,11.95
2022-11-17T05:03:52.977Z,11.80
2022-11-17T05:06:23.838Z,12.85
2022-11-17T05:08:51.430Z,11.98
2022-11-17T05:11:36.942Z,12.52
2022-11-17T05:14:03.540Z,12.38
2022-11-17T05:16:48.505Z,12.23
2022-11-17T05:19:23.947Z,13.07
2022-11-17T05:21:50.919Z,13.98
2022-11-17T05:24:18.327Z,13.93
2022-11-17T05:29:16.098Z,14.52
2022-11-17T05:31:42.827Z,13.65
2022-11-17T05:34:12.605Z,14.45
2022-11-17T05:36:39.948Z,14.05
2022-11-17T05:39:07.274Z,15.10
2022-11-17T05:44:00.599Z,15.07
2022-11-17T05:46:27.179Z,13.93
2022-11-17T05:48:54.386Z,14.17
2022-11-17T05:51:23.752Z,14.52
2022-11-17T05:53:50.934Z,14.82
2022-11-17T05:56:44.345Z,14.85
2022-11-17T05:59:23.398Z,14.63
2022-11-17T06:02:34.042Z,14.63
2022-11-17T06:07:27.043Z,14.38
2022-11-17T06:09:54.524Z,14.10
2022-11-17T06:14:47.522Z,13.82
2022-11-17T06:17:27.202Z,14.80
2022-11-17T06:20:05.711Z,12.52
2022-11-17T06:22:33.431Z,13.90
2022-11-17T06:25:01.958Z,13.70
2022-11-17T06:27:30.796Z,13.70
2022-11-17T06:30:01.529Z,14.98
2022-11-17T06:32:28.446Z,14.63
2022-11-17T06:34:56.523Z,14.25
2022-11-17T06:37:24.879Z,15.25
2022-11-17T06:39:51.764Z,15.50
2022-11-17T06:42:18.527Z,14.45
2022-11-17T06:44:45.062Z,14.60
2022-11-17T06:47:11.663Z,15.33
2022-11-17T06:49:38.172Z,18.80
2022-11-17T06:52:04.717Z,16.60
2022-11-17T06:54:31.260Z,15.70
2022-11-17T06:56:57.837Z,16.70
2022-11-17T06:59:24.462Z,17.33
2022-11-17T07:01:51.047Z,17.45
2022-11-17T07:04:17.791Z,18.73
2022-11-17T07:06:44.375Z,16.35
2022-11-17T07:09:10.930Z,16.80
2022-11-17T07:11:38.586Z,15.00
2022-11-17T07:14:05.137Z,16.03
2022-11-17T07:16:32.719Z,17.40
2022-11-17T07:18:59.886Z,17.52
2022-11-17T07:21:26.455Z,15.23
2022-11-17T07:23:53.029Z,15.45
2022-11-17T07:26:19.719Z,16.63
2022-11-17T07:28:46.237Z,17.80
2022-11-17T07:31:12.792Z,13.40
2022-11-17T07:33:39.319Z,11.23
2022-11-17T07:36:11.744Z,12.13
2022-11-17T07:38:40.078Z,14.07
2022-11-17T07:41:08.850Z,12.43
2022-11-17T07:43:36.688Z,14.70
2022-11-17T07:46:05.361Z,10.60
2022-11-17T07:48:32.690Z,8.15
2022-11-17T07:51:00.396Z,4.47
2022-11-17T07:53:27.044Z,4.25
2022-11-17T07:55:53.575Z,3.67
2022-11-17T07:58:20.228Z,2.97
2022-11-17T08:00:46.859Z,3.92
2022-11-17T08:03:13.508Z,4.47
2022-11-17T08:05:43.692Z,5.30
2022-11-17T08:08:10.809Z,5.93
2022-11-17T08:10:37.404Z,6.07
2022-11-17T08:13:04.473Z,6.67
2022-11-17T08:15:31.483Z,8.48
2022-11-17T08:17:59.953Z,8.90
2022-11-17T08:20:28.736Z,7.70
2022-11-17T08:22:56.554Z,8.80
2022-11-17T08:25:25.124Z,11.90
2022-11-17T08:27:55.604Z,13.35
2022-11-17T08:30:24.169Z,11.77
2022-11-17T08:32:52.960Z,9.70
2022-11-17T08:35:24.226Z,8.15
2022-11-17T08:37:50.935Z,6.43
2022-11-17T08:40:18.331Z,5.63
2022-11-17T08:45:12.045Z,5.40
2022-11-17T08:47:39.539Z,4.25
2022-11-17T08:52:32.994Z,3.83
2022-11-17T08:54:59.653Z,4.05
2022-11-17T08:57:26.331Z,3.72
2022-11-17T08:59:52.926Z,3.72
2022-11-17T09:02:19.482Z,3.80
2022-11-17T09:04:46.856Z,3.40
2022-11-17T09:07:13.798Z,7.45
2022-11-17T09:09:40.688Z,11.45
2022-11-17T09:12:07.704Z,3.88
2022-11-17T09:14:34.249Z,12.32
2022-11-17T09:17:00.783Z,5.17
2022-11-17T09:19:27.535Z,3.75
2022-11-17T09:21:54.137Z,4.03
2022-11-17T09:24:20.677Z,9.73
2022-11-17T09:26:47.228Z,4.13
2022-11-17T09:29:14.557Z,4.40
2022-11-17T09:31:41.212Z,2.50
2022-11-17T09:34:08.092Z,1.90
2022-11-17T09:36:34.967Z,5.38
2022-11-17T09:39:01.527Z,2.22
2022-11-17T09:41:56.277Z,3.73
2022-11-17T09:44:34.436Z,2.05
2022-11-17T09:47:00.984Z,3.90
2022-11-17T09:49:42.636Z,6.80
2022-11-17T09:52:14.903Z,8.90
2022-11-17T09:54:48.645Z,9.23
2022-11-17T09:57:29.008Z,8.48
2022-11-17T10:00:14.749Z,5.75
2022-11-17T10:02:44.994Z,6.00
2022-11-17T10:05:16.043Z,4.68
2022-11-17T10:07:49.567Z,7.18
2022-11-17T10:10:21.590Z,6.38
2022-11-17T10:12:56.278Z,6.65
2022-11-17T10:15:30.258Z,6.97
2022-11-17T10:17:57.170Z,6.78
2022-11-17T10:20:23.908Z,4.93
2022-11-17T10:22:53.861Z,5.63
2022-11-17T10:25:38.620Z,5.85
2022-11-17T10:28:22.960Z,6.85
2022-11-17T10:30:54.456Z,6.15
2022-11-17T10:33:38.711Z,5.53
2022-11-17T10:36:13.280Z,4.68
2022-11-17T10:38:44.692Z,3.40
2022-11-17T10:41:19.936Z,3.65
2022-11-17T10:44:12.460Z,3.75
2022-11-17T10:47:02.456Z,3.78
2022-11-17T10:49:39.760Z,3.03
2022-11-17T10:52:08.909Z,4.68
2022-11-17T10:54:35.585Z,5.18
2022-11-17T10:57:09.237Z,32.00
2022-11-17T10:59:45.813Z,4.10
2022-11-17T11:02:32.122Z,4.05
2022-11-17T11:05:13.164Z,3.85
2022-11-17T11:07:41.042Z,7.57
2022-11-17T11:10:17.979Z,10.18
2022-11-17T11:13:09.301Z,6.57
2022-11-17T11:15:36.791Z,6.43
2022-11-17T11:20:52.436Z,5.05
2022-11-17T11:23:44.776Z,8.68
2022-11-17T11:26:44.533Z,6.68
2022-11-17T11:29:51.049Z,6.03
2022-11-17T11:33:00.025Z,6.00
2022-11-17T11:35:32.565Z,7.47
2022-11-17T11:38:11.275Z,11.70
2022-11-17T11:40:41.153Z,7.78
2022-11-17T11:43:35.412Z,5.93
2022-11-17T11:46:23.602Z,4.53
2022-11-17T11:48:54.074Z,5.13
2022-11-17T11:51:37.033Z,8.55
2022-11-17T11:54:13.775Z,10.23
2022-11-17T11:56:46.119Z,9.48
2022-11-17T11:59:35.698Z,8.07
2022-11-17T12:02:11.279Z,8.80
2022-11-17T12:04:56.220Z,7.57
2022-11-17T12:07:37.739Z,5.28
2022-11-17T12:10:07.339Z,5.53
2022-11-17T12:12:37.039Z,5.72
2022-11-17T12:15:18.449Z,5.50
2022-11-17T12:18:18.643Z,4.72
2022-11-17T12:20:57.718Z,4.90
2022-11-17T12:23:49.431Z,5.28
2022-11-17T12:26:30.733Z,5.57
2022-11-17T12:29:25.946Z,7.22
2022-11-17T12:31:57.647Z,5.60
2022-11-17T12:34:31.392Z,4.75
2022-11-17T12:37:15.927Z,6.60
2022-11-17T12:40:33.101Z,4.93
2022-11-17T12:43:14.517Z,6.78
2022-11-17T12:45:59.192Z,5.70
2022-11-17T12:48:35.315Z,5.50
2022-11-17T12:51:07.870Z,4.63
2022-11-17T12:54:00.669Z,4.93
2022-11-17T12:56:27.120Z,4.80
2022-11-17T12:59:27.444Z,12.45
2022-11-17T13:02:00.122Z,9.80
2022-11-17T13:04:37.362Z,8.63
2022-11-17T13:09:36.658Z,10.40
2022-11-17T13:12:09.829Z,10.25
2022-11-17T13:14:51.886Z,10.32
2022-11-17T13:17:22.537Z,10.63
2022-11-17T13:19:58.930Z,8.25
2022-11-17T13:22:25.514Z,9.47
2022-11-17T13:24:53.958Z,16.67
2022-11-17T13:27:20.512Z,23.60
2022-11-17T13:29:47.195Z,32.93
2022-11-17T13:32:26.521Z,21.27
2022-11-17T13:35:00.057Z,30.35
2022-11-17T13:37:28.557Z,15.00
2022-11-17T13:39:55.278Z,10.93
2022-11-17T13:42:25.234Z,12.20
2022-11-17T13:44:54.848Z,13.52
2022-11-17T13:47:42.196Z,12.65
2022-11-17T13:50:29.596Z,10.48
2022-11-17T13:53:01.070Z,13.25
2022-11-17T13:55:28.331Z,13.13
2022-11-17T13:58:22.258Z,11.35
2022-11-17T14:00:53.658Z,11.25
2022-11-17T14:03:43.700Z,10.27
2022-11-17T14:06:12.748Z,10.25
2022-11-17T14:08:40.664Z,9.50
2022-11-17T14:11:10.289Z,10.35
2022-11-17T14:13:48.899Z,10.18
2022-11-17T14:16:23.238Z,10.75
2022-11-17T14:19:00.133Z,21.38
2022-11-17T14:21:27.385Z,16.42
2022-11-17T14:24:11.996Z,11.27
2022-11-17T14:26:44.730Z,11.07
2022-11-17T14:29:13.061Z,12.82
2022-11-17T14:31:39.837Z,13.88
2022-11-17T14:34:06.382Z,15.20
2022-11-17T14:36:33.469Z,16.63
2022-11-17T14:39:00.961Z,20.25
2022-11-17T14:41:27.488Z,17.95
2022-11-17T14:43:54.136Z,16.13
2022-11-17T14:46:25.739Z,20.63
2022-11-17T14:48:53.716Z,21.95
2022-11-17T14:51:20.809Z,25.70
2022-11-17T14:53:47.981Z,17.98
2022-11-17T14:56:18.017Z,17.08
2022-11-17T14:58:46.608Z,16.70
2022-11-17T15:01:25.265Z,19.98
2022-11-17T15:03:53.340Z,13.82
2022-11-17T15:06:20.477Z,12.02
2022-11-17T15:08:52.994Z,14.45
2022-11-17T15:11:19.544Z,16.58
2022-11-17T15:13:46.073Z,17.27
2022-11-17T15:16:12.694Z,22.47
2022-11-17T15:18:39.264Z,20.25
2022-11-17T15:21:07.906Z,18.50
2022-11-17T15:23:38.207Z,31.02
2022-11-17T15:26:06.478Z,42.47
2022-11-17T15:28:33.713Z,43.70
2022-11-17T15:31:08.508Z,23.35
2022-11-17T15:33:35.108Z,18.40
2022-11-17T15:36:03.007Z,17.07
2022-11-17T15:38:29.737Z,14.13
2022-11-17T15:40:56.412Z,15.32
2022-11-17T15:43:29.799Z,15.75
2022-11-17T15:46:07.271Z,17.35
2022-11-17T15:48:35.312Z,14.98
2022-11-17T15:51:05.691Z,11.30
2022-11-17T15:53:34.590Z,25.58
2022-11-17T15:56:11.501Z,24.90
2022-11-17T15:58:39.066Z,21.55
2022-11-17T16:01:13.908Z,33.47
2022-11-17T16:03:42.596Z,32.20
2022-11-17T16:06:10.724Z,26.83
2022-11-17T16:08:38.551Z,23.27
2022-11-17T16:11:05.598Z,24.35
2022-11-17T16:13:32.793Z,24.35
2022-11-17T16:15:59.628Z,32.10
2022-11-17T16:18:26.281Z,30.40
2022-11-17T16:20:53.147Z,27.38
2022-11-17T16:23:19.926Z,15.15
2022-11-17T16:25:48.289Z,14.10
2022-11-17T16:28:17.066Z,11.77
2022-11-17T16:30:43.690Z,11.15
2022-11-17T16:33:12.507Z,10.88
2022-11-17T16:35:40.491Z,12.40
2022-11-17T16:38:08.580Z,22.70
2022-11-17T16:40:37.707Z,22.63
2022-11-17T16:43:04.251Z,20.92
2022-11-17T16:45:33.552Z,14.83
2022-11-17T16:48:00.113Z,14.65
2022-11-17T16:50:26.684Z,14.47
2022-11-17T16:52:53.383Z,16.20
2022-11-17T16:55:20.004Z,16.33
2022-11-17T16:57:46.553Z,14.90
2022-11-17T17:00:15.033Z,14.77
2022-11-17T17:02:41.704Z,22.15
2022-11-17T17:05:08.498Z,33.50
2022-11-17T17:07:35.138Z,33.50
2022-11-17T17:10:01.930Z,20.92
2022-11-17T17:12:28.598Z,17.05
2022-11-17T17:14:55.116Z,15.57
2022-11-17T17:17:21.637Z,11.87
2022-11-17T17:19:48.196Z,10.73
2022-11-17T17:22:14.762Z,10.07
2022-11-17T17:24:41.396Z,10.17
2022-11-17T17:27:07.981Z,10.65
2022-11-17T17:29:34.603Z,10.63
2022-11-17T17:32:01.181Z,11.48
2022-11-17T17:34:27.753Z,12.67
2022-11-17T17:36:54.371Z,12.10
2022-11-17T17:39:20.970Z,12.00
2022-11-17T17:41:47.568Z,12.23
2022-11-17T17:44:16.608Z,12.67
2022-11-17T17:46:43.886Z,11.25
2022-11-17T17:49:10.709Z,11.30
2022-11-17T17:51:40.303Z,12.02
2022-11-17T17:54:07.408Z,13.52
2022-11-17T17:56:34.833Z,17.45
2022-11-17T18:01:30.299Z,16.52
2022-11-17T18:04:04.274Z,12.40
2022-11-17T18:06:34.941Z,14.10
2022-11-17T18:09:01.595Z,10.90
2022-11-17T18:11:28.201Z,10.73
2022-11-17T18:13:54.889Z,9.65
2022-11-17T18:16:24.437Z,9.82
2022-11-17T18:18:58.155Z,9.27
2022-11-17T18:21:25.014Z,9.80
2022-11-17T18:23:53.420Z,10.05
2022-11-17T18:26:22.923Z,9.65
2022-11-17T18:28:52.663Z,9.30
2022-11-17T18:31:20.434Z,9.00
2022-11-17T18:33:55.008Z,8.90
2022-11-17T18:36:22.009Z,8.90
2022-11-17T18:38:49.272Z,7.97
2022-11-17T18:41:17.143Z,8.38
2022-11-17T18:43:44.259Z,8.48
2022-11-17T18:46:13.997Z,8.95
2022-11-17T18:48:42.867Z,9.57
2022-11-17T18:51:20.793Z,9.52
2022-11-17T18:53:49.266Z,10.05
2022-11-17T18:56:17.839Z,10.98
2022-11-17T18:58:44.502Z,11.00
2022-11-17T19:01:22.429Z,9.50
2022-11-17T19:03:53.585Z,9.95
2022-11-17T19:06:22.405Z,9.18
2022-11-17T19:08:49.579Z,9.50
2022-11-17T19:11:17.763Z,9.48
2022-11-17T19:13:45.237Z,9.00
2022-11-17T19:18:47.982Z,9.52
2022-11-17T19:21:17.606Z,9.90
2022-11-17T19:23:50.995Z,9.77
2022-11-17T19:26:24.461Z,9.88
2022-11-17T19:28:55.683Z,9.45
2022-11-17T19:31:22.273Z,10.00
2022-11-17T19:33:50.216Z,10.20
2022-11-17T19:36:21.800Z,10.88
2022-11-17T19:38:50.107Z,10.48
2022-11-17T19:41:22.046Z,10.25
2022-11-17T19:43:48.964Z,10.88
2022-11-17T19:46:17.096Z,9.93
2022-11-17T19:48:44.382Z,9.50
2022-11-17T19:51:18.503Z,9.07
2022-11-17T19:53:45.606Z,9.05
2022-11-17T19:56:12.641Z,9.15
2022-11-17T19:58:41.008Z,10.27
2022-11-17T20:01:10.188Z,9.35
2022-11-17T20:03:37.024Z,13.77
2022-11-17T20:06:03.970Z,12.00
2022-11-17T20:08:31.444Z,11.20
2022-11-17T20:11:09.424Z,10.60
2022-11-17T20:13:37.052Z,10.38
2022-11-17T20:16:11.438Z,9.60
2022-11-17T20:18:38.737Z,10.00
2022-11-17T20:21:06.698Z,9.57
2022-11-17T20:23:34.923Z,8.55
2022-11-17T20:26:10.906Z,8.90
2022-11-17T20:28:38.442Z,8.85
2022-11-17T20:31:10.010Z,8.77
2022-11-17T20:33:40.972Z,9.23
2022-11-17T20:36:09.569Z,9.38
2022-11-17T20:38:36.218Z,9.45
2022-11-17T20:41:03.612Z,9.30
2022-11-17T20:45:57.631Z,9.73
2022-11-17T20:48:25.196Z,9.10
2022-11-17T20:51:00.034Z,9.05
2022-11-17T20:53:27.379Z,8.95
2022-11-17T20:56:00.913Z,9.68
2022-11-17T20:58:28.225Z,9.68
2022-11-17T21:00:55.843Z,9.27
2022-11-17T21:03:22.810Z,8.75
2022-11-17T21:06:00.415Z,9.20
2022-11-17T21:08:33.134Z,7.97
2022-11-17T21:11:02.809Z,8.50
2022-11-17T21:13:31.457Z,8.90
2022-11-17T21:16:12.783Z,8.65
2022-11-17T21:18:45.155Z,8.93
2022-11-17T21:21:12.483Z,8.93
2022-11-17T21:23:40.181Z,8.32
2022-11-17T21:26:14.544Z,8.85
2022-11-17T21:28:41.486Z,8.15
2022-11-17T21:31:12.110Z,8.93
2022-11-17T21:33:39.410Z,8.00
2022-11-17T21:36:09.422Z,7.80
2022-11-17T21:38:36.397Z,8.05
2022-11-17T21:41:08.536Z,7.78
2022-11-17T21:43:39.929Z,7.60
2022-11-17T21:46:10.180Z,8.50
2022-11-17T21:48:37.514Z,7.85
2022-11-17T21:51:05.757Z,7.18
2022-11-17T21:53:32.356Z,7.53
2022-11-17T21:56:03.434Z,7.20
2022-11-17T21:58:30.108Z,6.72
2022-11-17T22:00:56.678Z,7.78
2022-11-17T22:03:24.325Z,7.23
2022-11-17T22:05:58.022Z,8.55
2022-11-17T22:08:27.584Z,7.95
2022-11-17T22:10:54.193Z,7.43
2022-11-17T22:13:20.751Z,7.13
2022-11-17T22:15:47.240Z,7.50
2022-11-17T22:18:13.754Z,8.17
2022-11-17T22:20:40.345Z,7.90
2022-11-17T22:23:06.892Z,8.00
2022-11-17T22:25:48.794Z,7.87
2022-11-17T22:28:15.445Z,8.30
2022-11-17T22:30:41.958Z,8.80
2022-11-17T22:33:08.501Z,8.17
2022-11-17T22:35:35.139Z,8.80
2022-11-17T22:38:01.660Z,8.80
2022-11-17T22:40:28.172Z,7.43
2022-11-17T22:42:54.818Z,7.63
2022-11-17T22:45:21.461Z,7.45
2022-11-17T22:47:47.989Z,7.57
2022-11-17T22:50:14.639Z,8.67
2022-11-17T22:52:41.155Z,8.57
2022-11-17T22:55:08.089Z,9.30
2022-11-17T22:57:34.729Z,8.77
2022-11-17T23:00:01.260Z,8.00
2022-11-17T23:02:27.758Z,8.73
2022-11-17T23:04:54.325Z,8.63
2022-11-17T23:07:20.895Z,9.50
2022-11-17T23:09:47.449Z,8.45
2022-11-17T23:12:14.525Z,9.03
2022-11-17T23:14:41.093Z,9.43
2022-11-17T23:17:07.713Z,9.20
2022-11-17T23:19:34.308Z,8.90
2022-11-17T23:22:00.892Z,9.07
2022-11-17T23:24:27.445Z,9.33
2022-11-17T23:26:53.986Z,9.60
2022-11-17T23:29:20.500Z,9.43
2022-11-17T23:31:47.070Z,14.27
2022-11-17T23:34:13.640Z,13.77
2022-11-17T23:36:40.165Z,11.50
2022-11-17T23:39:06.825Z,15.80
2022-11-17T23:41:33.473Z,14.75
2022-11-17T23:44:00.016Z,16.25
2022-11-17T23:46:27.344Z,14.50
2022-11-17T23:48:55.245Z,15.18
2022-11-17T23:51:24.031Z,15.98
2022-11-17T23:53:51.006Z,13.50
2022-11-17T23:56:19.634Z,14.50
2022-11-17T23:58:46.185Z,12.43
